sensor_id;sensor_type;location;lat;lon;timestamp;temperature;humidity
2487;DHT22;1254;49.144;8.212;2022-09-24T00:02:01;12.00;99.90
2487;DHT22;1254;49.144;8.212;2022-09-24T00:04:30;12.00;99.90
2487;DHT22;1254;49.144;8.212;2022-09-24T00:06:58;12.10;99.90
2487;DHT22;1254;49.144;8.212;2022-09-24T00:09:26;12.00;99.90
2487;DHT22;1254;49.144;8.212;2022-09-24T00:11:54;11.90;99.90
2487;DHT22;1254;49.144;8.212;2022-09-24T00:14:22;11.80;99.90
2487;DHT22;1254;49.144;8.212;2022-09-24T00:16:50;11.80;99.90
2487;DHT22;1254;49.144;8.212;2022-09-24T00:19:18;11.70;99.90
2487;DHT22;1254;49.144;8.212;2022-09-24T00:21:47;11.60;99.90
2487;DHT22;1254;49.144;8.212;2022-09-24T00:24:16;11.60;99.90
2487;DHT22;1254;49.144;8.212;2022-09-24T00:26:58;11.60;99.90
2487;DHT22;1254;49.144;8.212;2022-09-24T00:29:29;11.60;99.90
2487;DHT22;1254;49.144;8.212;2022-09-24T00:31:58;11.60;99.90
2487;DHT22;1254;49.144;8.212;2022-09-24T00:34:26;11.50;99.90
2487;DHT22;1254;49.144;8.212;2022-09-24T00:36:56;11.50;99.90
2487;DHT22;1254;49.144;8.212;2022-09-24T00:39:24;11.50;99.90
2487;DHT22;1254;49.144;8.212;2022-09-24T00:41:52;11.50;99.90
2487;DHT22;1254;49.144;8.212;2022-09-24T00:44:47;11.50;99.90
2487;DHT22;1254;49.144;8.212;2022-09-24T00:47:23;11.50;99.90
2487;DHT22;1254;49.144;8.212;2022-09-24T00:49:57;11.50;99.90
2487;DHT22;1254;49.144;8.212;2022-09-24T00:52:31;11.50;99.90
2487;DHT22;1254;49.144;8.212;2022-09-24T00:54:59;11.40;99.90
2487;DHT22;1254;49.144;8.212;2022-09-24T00:57:28;11.50;99.90
2487;DHT22;1254;49.144;8.212;2022-09-24T00:59:56;11.40;99.90
2487;DHT22;1254;49.144;8.212;2022-09-24T01:02:24;11.40;99.90
2487;DHT22;1254;49.144;8.212;2022-09-24T01:04:52;11.30;99.90
2487;DHT22;1254;49.144;8.212;2022-09-24T01:07:20;11.20;99.90
2487;DHT22;1254;49.144;8.212;2022-09-24T01:09:50;11.10;99.90
2487;DHT22;1254;49.144;8.212;2022-09-24T01:12:23;11.10;99.90
2487;DHT22;1254;49.144;8.212;2022-09-24T01:15:09;11.00;99.90
2487;DHT22;1254;49.144;8.212;2022-09-24T01:17:49;10.90;99.90
2487;DHT22;1254;49.144;8.212;2022-09-24T01:23:40;11.00;99.90
2487;DHT22;1254;49.144;8.212;2022-09-24T01:26:22;10.90;99.90
2487;DHT22;1254;49.144;8.212;2022-09-24T01:29:12;10.90;99.90
2487;DHT22;1254;49.144;8.212;2022-09-24T01:31:51;10.90;99.90
2487;DHT22;1254;49.144;8.212;2022-09-24T01:34:24;10.90;99.90
2487;DHT22;1254;49.144;8.212;2022-09-24T01:36:55;10.70;99.90
2487;DHT22;1254;49.144;8.212;2022-09-24T01:39:26;10.70;99.90
2487;DHT22;1254;49.144;8.212;2022-09-24T01:41:54;10.60;99.90
2487;DHT22;1254;49.144;8.212;2022-09-24T01:44:24;10.50;99.90
2487;DHT22;1254;49.144;8.212;2022-09-24T01:46:53;10.50;99.90
2487;DHT22;1254;49.144;8.212;2022-09-24T01:49:21;10.60;99.90
2487;DHT22;1254;49.144;8.212;2022-09-24T01:51:51;10.50;99.90
2487;DHT22;1254;49.144;8.212;2022-09-24T01:54:25;10.60;99.90
2487;DHT22;1254;49.144;8.212;2022-09-24T01:57:05;10.60;99.90
2487;DHT22;1254;49.144;8.212;2022-09-24T01:59:53;10.60;99.90
2487;DHT22;1254;49.144;8.212;2022-09-24T02:02:27;10.60;99.90
2487;DHT22;1254;49.144;8.212;2022-09-24T02:05:00;10.50;99.90
2487;DHT22;1254;49.144;8.212;2022-09-24T02:07:33;10.40;99.90
2487;DHT22;1254;49.144;8.212;2022-09-24T02:10:02;10.40;99.90
2487;DHT22;1254;49.144;8.212;2022-09-24T02:12:33;10.30;99.90
2487;DHT22;1254;49.144;8.212;2022-09-24T02:15:12;10.30;99.90
2487;DHT22;1254;49.144;8.212;2022-09-24T02:17:43;10.30;99.90
2487;DHT22;1254;49.144;8.212;2022-09-24T02:20:14;10.30;99.90
2487;DHT22;1254;49.144;8.212;2022-09-24T02:22:43;10.40;99.90
2487;DHT22;1254;49.144;8.212;2022-09-24T02:25:14;10.40;99.90
2487;DHT22;1254;49.144;8.212;2022-09-24T02:27:43;10.30;99.90
2487;DHT22;1254;49.144;8.212;2022-09-24T02:30:13;10.40;99.90
2487;DHT22;1254;49.144;8.212;2022-09-24T02:32:41;10.40;99.90
2487;DHT22;1254;49.144;8.212;2022-09-24T02:35:11;10.40;99.90
2487;DHT22;1254;49.144;8.212;2022-09-24T02:37:40;10.50;99.90
2487;DHT22;1254;49.144;8.212;2022-09-24T02:40:10;10.50;99.90
2487;DHT22;1254;49.144;8.212;2022-09-24T02:42:40;10.50;99.90
2487;DHT22;1254;49.144;8.212;2022-09-24T02:45:09;10.50;99.90
2487;DHT22;1254;49.144;8.212;2022-09-24T02:47:39;10.40;99.90
2487;DHT22;1254;49.144;8.212;2022-09-24T02:50:07;10.40;99.90
2487;DHT22;1254;49.144;8.212;2022-09-24T02:52:35;10.40;99.90
2487;DHT22;1254;49.144;8.212;2022-09-24T02:55:04;10.40;99.90
2487;DHT22;1254;49.144;8.212;2022-09-24T02:57:32;10.40;99.90
2487;DHT22;1254;49.144;8.212;2022-09-24T03:00:00;10.40;99.90
2487;DHT22;1254;49.144;8.212;2022-09-24T03:02:28;10.40;99.90
2487;DHT22;1254;49.144;8.212;2022-09-24T03:04:58;10.30;99.90
2487;DHT22;1254;49.144;8.212;2022-09-24T03:07:26;10.20;99.90
2487;DHT22;1254;49.144;8.212;2022-09-24T03:09:53;10.10;99.90
2487;DHT22;1254;49.144;8.212;2022-09-24T03:12:21;10.20;99.90
2487;DHT22;1254;49.144;8.212;2022-09-24T03:14:50;10.10;99.90
2487;DHT22;1254;49.144;8.212;2022-09-24T03:17:18;10.10;99.90
2487;DHT22;1254;49.144;8.212;2022-09-24T03:19:46;10.10;99.90
2487;DHT22;1254;49.144;8.212;2022-09-24T03:22:15;10.10;99.90
2487;DHT22;1254;49.144;8.212;2022-09-24T03:24:44;10.00;99.90
2487;DHT22;1254;49.144;8.212;2022-09-24T03:27:11;10.00;99.90
2487;DHT22;1254;49.144;8.212;2022-09-24T03:29:40;10.00;99.90
2487;DHT22;1254;49.144;8.212;2022-09-24T03:32:26;10.00;99.90
2487;DHT22;1254;49.144;8.212;2022-09-24T03:34:54;9.90;99.90
2487;DHT22;1254;49.144;8.212;2022-09-24T03:37:24;9.90;99.90
2487;DHT22;1254;49.144;8.212;2022-09-24T03:39:51;9.90;99.90
2487;DHT22;1254;49.144;8.212;2022-09-24T03:42:19;9.90;99.90
2487;DHT22;1254;49.144;8.212;2022-09-24T03:44:47;9.70;99.90
2487;DHT22;1254;49.144;8.212;2022-09-24T03:47:15;9.70;99.90
2487;DHT22;1254;49.144;8.212;2022-09-24T03:49:43;9.60;99.90
2487;DHT22;1254;49.144;8.212;2022-09-24T03:52:11;9.60;99.90
2487;DHT22;1254;49.144;8.212;2022-09-24T03:54:40;9.60;99.90
2487;DHT22;1254;49.144;8.212;2022-09-24T03:57:08;9.60;99.90
2487;DHT22;1254;49.144;8.212;2022-09-24T03:59:40;9.60;99.90
2487;DHT22;1254;49.144;8.212;2022-09-24T04:02:09;9.50;99.90
2487;DHT22;1254;49.144;8.212;2022-09-24T04:04:37;9.40;99.90
2487;DHT22;1254;49.144;8.212;2022-09-24T04:07:05;9.40;99.90
2487;DHT22;1254;49.144;8.212;2022-09-24T04:09:33;9.40;99.90
2487;DHT22;1254;49.144;8.212;2022-09-24T04:12:03;9.30;99.90
2487;DHT22;1254;49.144;8.212;2022-09-24T04:14:31;9.30;99.90
2487;DHT22;1254;49.144;8.212;2022-09-24T04:16:58;9.20;99.90
2487;DHT22;1254;49.144;8.212;2022-09-24T04:19:26;9.20;99.90
2487;DHT22;1254;49.144;8.212;2022-09-24T04:21:55;9.20;99.90
2487;DHT22;1254;49.144;8.212;2022-09-24T04:24:23;9.10;99.90
2487;DHT22;1254;49.144;8.212;2022-09-24T04:26:50;9.10;99.90
2487;DHT22;1254;49.144;8.212;2022-09-24T04:29:20;9.00;99.90
2487;DHT22;1254;49.144;8.212;2022-09-24T04:31:48;9.00;99.90
2487;DHT22;1254;49.144;8.212;2022-09-24T04:34:16;9.10;99.90
2487;DHT22;1254;49.144;8.212;2022-09-24T04:36:44;9.20;99.90
2487;DHT22;1254;49.144;8.212;2022-09-24T04:39:11;9.20;99.90
2487;DHT22;1254;49.144;8.212;2022-09-24T04:41:41;9.10;99.90
2487;DHT22;1254;49.144;8.212;2022-09-24T04:44:09;9.10;99.90
2487;DHT22;1254;49.144;8.212;2022-09-24T04:46:40;9.20;99.90
2487;DHT22;1254;49.144;8.212;2022-09-24T04:49:08;9.20;99.90
2487;DHT22;1254;49.144;8.212;2022-09-24T04:51:37;9.30;99.90
2487;DHT22;1254;49.144;8.212;2022-09-24T04:54:05;9.20;99.90
2487;DHT22;1254;49.144;8.212;2022-09-24T04:56:36;9.20;99.90
2487;DHT22;1254;49.144;8.212;2022-09-24T04:59:04;9.20;99.90
2487;DHT22;1254;49.144;8.212;2022-09-24T05:01:32;9.10;99.90
2487;DHT22;1254;49.144;8.212;2022-09-24T05:04:01;9.10;99.90
2487;DHT22;1254;49.144;8.212;2022-09-24T05:06:29;9.00;99.90
2487;DHT22;1254;49.144;8.212;2022-09-24T05:08:59;8.90;99.90
2487;DHT22;1254;49.144;8.212;2022-09-24T05:11:27;8.90;99.90
2487;DHT22;1254;49.144;8.212;2022-09-24T05:13:55;8.90;99.90
2487;DHT22;1254;49.144;8.212;2022-09-24T05:16:23;8.90;99.90
2487;DHT22;1254;49.144;8.212;2022-09-24T05:18:51;9.10;99.90
2487;DHT22;1254;49.144;8.212;2022-09-24T05:21:22;9.10;99.90
2487;DHT22;1254;49.144;8.212;2022-09-24T05:23:50;9.30;99.90
2487;DHT22;1254;49.144;8.212;2022-09-24T05:26:18;9.40;99.90
2487;DHT22;1254;49.144;8.212;2022-09-24T05:29:05;9.50;99.90
2487;DHT22;1254;49.144;8.212;2022-09-24T05:31:33;9.70;99.90
2487;DHT22;1254;49.144;8.212;2022-09-24T05:34:02;9.80;99.90
2487;DHT22;1254;49.144;8.212;2022-09-24T05:36:32;9.90;99.90
2487;DHT22;1254;49.144;8.212;2022-09-24T05:39:00;10.00;99.90
2487;DHT22;1254;49.144;8.212;2022-09-24T05:41:28;10.20;99.90
2487;DHT22;1254;49.144;8.212;2022-09-24T05:43:55;10.20;99.90
2487;DHT22;1254;49.144;8.212;2022-09-24T05:46:25;10.30;99.90
2487;DHT22;1254;49.144;8.212;2022-09-24T05:48:53;10.20;99.90
2487;DHT22;1254;49.144;8.212;2022-09-24T05:51:21;10.10;99.90
2487;DHT22;1254;49.144;8.212;2022-09-24T05:53:50;10.20;99.90
2487;DHT22;1254;49.144;8.212;2022-09-24T05:56:18;10.10;99.90
2487;DHT22;1254;49.144;8.212;2022-09-24T05:58:47;9.90;99.90
2487;DHT22;1254;49.144;8.212;2022-09-24T06:01:15;10.00;99.90
2487;DHT22;1254;49.144;8.212;2022-09-24T06:03:43;10.00;99.90
2487;DHT22;1254;49.144;8.212;2022-09-24T06:06:14;10.00;99.90
2487;DHT22;1254;49.144;8.212;2022-09-24T06:08:42;10.00;99.90
2487;DHT22;1254;49.144;8.212;2022-09-24T06:11:40;10.00;99.90
2487;DHT22;1254;49.144;8.212;2022-09-24T06:14:09;10.10;99.90
2487;DHT22;1254;49.144;8.212;2022-09-24T06:16:37;10.30;99.90
2487;DHT22;1254;49.144;8.212;2022-09-24T06:19:05;10.30;99.90
2487;DHT22;1254;49.144;8.212;2022-09-24T06:21:33;10.40;99.90
2487;DHT22;1254;49.144;8.212;2022-09-24T06:24:01;10.60;99.90
2487;DHT22;1254;49.144;8.212;2022-09-24T06:26:29;10.70;99.90
2487;DHT22;1254;49.144;8.212;2022-09-24T06:29:00;10.80;99.90
2487;DHT22;1254;49.144;8.212;2022-09-24T06:31:27;10.70;99.90
2487;DHT22;1254;49.144;8.212;2022-09-24T06:33:55;10.60;99.90
2487;DHT22;1254;49.144;8.212;2022-09-24T06:36:23;10.50;99.90
2487;DHT22;1254;49.144;8.212;2022-09-24T06:38:51;10.30;99.90
2487;DHT22;1254;49.144;8.212;2022-09-24T06:41:19;10.30;99.90
2487;DHT22;1254;49.144;8.212;2022-09-24T06:43:48;10.30;99.90
2487;DHT22;1254;49.144;8.212;2022-09-24T06:46:18;10.50;99.90
2487;DHT22;1254;49.144;8.212;2022-09-24T06:48:48;10.70;99.90
2487;DHT22;1254;49.144;8.212;2022-09-24T06:51:16;10.80;99.90
2487;DHT22;1254;49.144;8.212;2022-09-24T06:53:44;10.80;99.90
2487;DHT22;1254;49.144;8.212;2022-09-24T06:56:12;10.90;99.90
2487;DHT22;1254;49.144;8.212;2022-09-24T06:58:40;11.00;99.90
2487;DHT22;1254;49.144;8.212;2022-09-24T07:01:08;11.30;99.90
2487;DHT22;1254;49.144;8.212;2022-09-24T07:03:37;11.50;99.90
2487;DHT22;1254;49.144;8.212;2022-09-24T07:06:06;11.60;99.90
2487;DHT22;1254;49.144;8.212;2022-09-24T07:08:34;11.70;99.90
2487;DHT22;1254;49.144;8.212;2022-09-24T07:11:02;11.70;99.90
2487;DHT22;1254;49.144;8.212;2022-09-24T07:13:30;11.80;99.90
2487;DHT22;1254;49.144;8.212;2022-09-24T07:15:58;11.80;99.90
2487;DHT22;1254;49.144;8.212;2022-09-24T07:18:26;12.10;99.90
2487;DHT22;1254;49.144;8.212;2022-09-24T07:20:56;12.20;99.90
2487;DHT22;1254;49.144;8.212;2022-09-24T07:23:24;12.20;99.90
2487;DHT22;1254;49.144;8.212;2022-09-24T07:25:55;12.30;99.90
2487;DHT22;1254;49.144;8.212;2022-09-24T07:28:23;12.40;99.90
2487;DHT22;1254;49.144;8.212;2022-09-24T07:30:56;12.50;99.90
2487;DHT22;1254;49.144;8.212;2022-09-24T07:33:24;12.50;99.90
2487;DHT22;1254;49.144;8.212;2022-09-24T07:35:52;12.50;99.90
2487;DHT22;1254;49.144;8.212;2022-09-24T07:38:21;12.70;99.90
2487;DHT22;1254;49.144;8.212;2022-09-24T07:40:49;12.90;99.90
2487;DHT22;1254;49.144;8.212;2022-09-24T07:43:20;13.00;99.90
2487;DHT22;1254;49.144;8.212;2022-09-24T07:45:48;13.00;99.90
2487;DHT22;1254;49.144;8.212;2022-09-24T07:48:17;13.10;99.90
2487;DHT22;1254;49.144;8.212;2022-09-24T07:50:45;13.20;99.90
2487;DHT22;1254;49.144;8.212;2022-09-24T07:53:13;13.30;99.90
2487;DHT22;1254;49.144;8.212;2022-09-24T07:55:43;13.60;99.90
2487;DHT22;1254;49.144;8.212;2022-09-24T07:58:13;13.70;99.90
2487;DHT22;1254;49.144;8.212;2022-09-24T08:00:41;13.80;99.90
2487;DHT22;1254;49.144;8.212;2022-09-24T08:03:09;14.00;99.90
2487;DHT22;1254;49.144;8.212;2022-09-24T08:05:41;13.90;99.90
2487;DHT22;1254;49.144;8.212;2022-09-24T08:08:10;13.80;99.90
2487;DHT22;1254;49.144;8.212;2022-09-24T08:10:38;13.80;99.90
2487;DHT22;1254;49.144;8.212;2022-09-24T08:13:11;13.80;99.90
2487;DHT22;1254;49.144;8.212;2022-09-24T08:15:39;13.80;99.90
2487;DHT22;1254;49.144;8.212;2022-09-24T08:18:07;13.60;99.90
2487;DHT22;1254;49.144;8.212;2022-09-24T08:20:36;13.50;99.90
2487;DHT22;1254;49.144;8.212;2022-09-24T08:23:05;13.50;99.90
2487;DHT22;1254;49.144;8.212;2022-09-24T08:25:35;13.50;99.90
2487;DHT22;1254;49.144;8.212;2022-09-24T08:28:04;13.60;99.90
2487;DHT22;1254;49.144;8.212;2022-09-24T08:30:34;13.70;99.90
2487;DHT22;1254;49.144;8.212;2022-09-24T08:33:03;13.80;99.90
2487;DHT22;1254;49.144;8.212;2022-09-24T08:35:32;13.80;99.90
2487;DHT22;1254;49.144;8.212;2022-09-24T08:38:01;13.70;99.90
2487;DHT22;1254;49.144;8.212;2022-09-24T08:40:32;13.80;99.90
2487;DHT22;1254;49.144;8.212;2022-09-24T08:43:12;13.80;99.90
2487;DHT22;1254;49.144;8.212;2022-09-24T08:45:48;14.00;99.90
2487;DHT22;1254;49.144;8.212;2022-09-24T08:48:39;14.30;99.90
2487;DHT22;1254;49.144;8.212;2022-09-24T08:51:12;14.50;99.90
2487;DHT22;1254;49.144;8.212;2022-09-24T08:53:47;14.70;99.90
2487;DHT22;1254;49.144;8.212;2022-09-24T08:56:19;14.90;99.90
2487;DHT22;1254;49.144;8.212;2022-09-24T08:58:51;15.00;99.90
2487;DHT22;1254;49.144;8.212;2022-09-24T09:01:30;15.20;99.90
2487;DHT22;1254;49.144;8.212;2022-09-24T09:04:03;15.00;99.90
2487;DHT22;1254;49.144;8.212;2022-09-24T09:06:57;14.90;99.90
2487;DHT22;1254;49.144;8.212;2022-09-24T09:09:40;15.00;99.90
2487;DHT22;1254;49.144;8.212;2022-09-24T09:12:13;15.20;99.90
2487;DHT22;1254;49.144;8.212;2022-09-24T09:14:45;15.30;99.90
2487;DHT22;1254;49.144;8.212;2022-09-24T09:17:28;15.40;99.90
2487;DHT22;1254;49.144;8.212;2022-09-24T09:20:02;15.60;99.90
2487;DHT22;1254;49.144;8.212;2022-09-24T09:22:36;15.40;99.90
2487;DHT22;1254;49.144;8.212;2022-09-24T09:25:17;15.30;99.90
2487;DHT22;1254;49.144;8.212;2022-09-24T09:27:49;15.50;99.90
2487;DHT22;1254;49.144;8.212;2022-09-24T09:30:29;16.00;99.90
2487;DHT22;1254;49.144;8.212;2022-09-24T09:33:12;15.80;99.90
2487;DHT22;1254;49.144;8.212;2022-09-24T09:35:50;15.90;99.90
2487;DHT22;1254;49.144;8.212;2022-09-24T09:38:26;15.90;99.90
2487;DHT22;1254;49.144;8.212;2022-09-24T09:41:01;16.40;99.90
2487;DHT22;1254;49.144;8.212;2022-09-24T09:43:30;16.20;99.90
2487;DHT22;1254;49.144;8.212;2022-09-24T09:46:08;15.90;99.90
2487;DHT22;1254;49.144;8.212;2022-09-24T09:48:43;16.00;99.90
2487;DHT22;1254;49.144;8.212;2022-09-24T09:51:16;16.10;99.90
2487;DHT22;1254;49.144;8.212;2022-09-24T09:53:56;16.40;99.90
2487;DHT22;1254;49.144;8.212;2022-09-24T09:56:42;16.20;99.90
2487;DHT22;1254;49.144;8.212;2022-09-24T09:59:16;16.10;99.90
2487;DHT22;1254;49.144;8.212;2022-09-24T10:01:46;16.00;99.90
2487;DHT22;1254;49.144;8.212;2022-09-24T10:04:31;16.00;99.90
2487;DHT22;1254;49.144;8.212;2022-09-24T10:07:04;16.50;99.90
2487;DHT22;1254;49.144;8.212;2022-09-24T10:09:33;16.50;99.90
2487;DHT22;1254;49.144;8.212;2022-09-24T10:12:15;16.50;99.90
2487;DHT22;1254;49.144;8.212;2022-09-24T10:15:15;16.40;99.90
2487;DHT22;1254;49.144;8.212;2022-09-24T10:17:44;16.60;99.90
2487;DHT22;1254;49.144;8.212;2022-09-24T10:20:18;16.80;99.90
2487;DHT22;1254;49.144;8.212;2022-09-24T10:22:50;16.60;99.90
2487;DHT22;1254;49.144;8.212;2022-09-24T10:25:21;16.60;99.90
2487;DHT22;1254;49.144;8.212;2022-09-24T10:27:53;16.70;99.90
2487;DHT22;1254;49.144;8.212;2022-09-24T10:30:51;16.80;99.90
2487;DHT22;1254;49.144;8.212;2022-09-24T10:33:34;16.70;99.90
2487;DHT22;1254;49.144;8.212;2022-09-24T10:36:07;16.60;99.90
2487;DHT22;1254;49.144;8.212;2022-09-24T10:38:40;16.80;99.90
2487;DHT22;1254;49.144;8.212;2022-09-24T10:41:21;16.90;99.90
2487;DHT22;1254;49.144;8.212;2022-09-24T10:43:52;16.80;99.90
2487;DHT22;1254;49.144;8.212;2022-09-24T10:46:50;16.80;99.90
2487;DHT22;1254;49.144;8.212;2022-09-24T10:49:33;16.90;99.90
2487;DHT22;1254;49.144;8.212;2022-09-24T10:52:12;16.90;99.90
2487;DHT22;1254;49.144;8.212;2022-09-24T10:54:52;17.10;99.90
2487;DHT22;1254;49.144;8.212;2022-09-24T10:57:39;17.00;99.90
2487;DHT22;1254;49.144;8.212;2022-09-24T11:00:17;17.10;99.90
2487;DHT22;1254;49.144;8.212;2022-09-24T11:05:58;17.10;99.90
2487;DHT22;1254;49.144;8.212;2022-09-24T11:08:45;17.20;99.90
2487;DHT22;1254;49.144;8.212;2022-09-24T11:11:28;17.50;99.90
2487;DHT22;1254;49.144;8.212;2022-09-24T11:14:30;17.50;99.90
2487;DHT22;1254;49.144;8.212;2022-09-24T11:17:35;17.50;99.90
2487;DHT22;1254;49.144;8.212;2022-09-24T11:20:21;17.50;99.90
2487;DHT22;1254;49.144;8.212;2022-09-24T11:25:56;17.80;99.90
2487;DHT22;1254;49.144;8.212;2022-09-24T11:28:42;17.80;99.90
2487;DHT22;1254;49.144;8.212;2022-09-24T11:31:21;18.20;99.90
2487;DHT22;1254;49.144;8.212;2022-09-24T11:34:08;18.40;99.90
2487;DHT22;1254;49.144;8.212;2022-09-24T11:36:47;18.10;99.90
2487;DHT22;1254;49.144;8.212;2022-09-24T11:39:37;18.40;99.90
2487;DHT22;1254;49.144;8.212;2022-09-24T11:42:20;18.20;99.90
2487;DHT22;1254;49.144;8.212;2022-09-24T11:45:23;18.50;99.90
2487;DHT22;1254;49.144;8.212;2022-09-24T11:48:18;19.00;99.90
2487;DHT22;1254;49.144;8.212;2022-09-24T11:51:01;19.10;99.90
2487;DHT22;1254;49.144;8.212;2022-09-24T11:53:39;19.40;99.90
2487;DHT22;1254;49.144;8.212;2022-09-24T11:56:13;19.10;99.90
2487;DHT22;1254;49.144;8.212;2022-09-24T11:58:49;19.30;99.90
2487;DHT22;1254;49.144;8.212;2022-09-24T12:01:21;18.90;99.90
2487;DHT22;1254;49.144;8.212;2022-09-24T12:03:54;18.70;99.90
2487;DHT22;1254;49.144;8.212;2022-09-24T12:06:29;18.90;99.90
2487;DHT22;1254;49.144;8.212;2022-09-24T12:09:01;19.00;99.90
2487;DHT22;1254;49.144;8.212;2022-09-24T12:11:35;19.60;99.90
2487;DHT22;1254;49.144;8.212;2022-09-24T12:14:13;20.00;99.90
2487;DHT22;1254;49.144;8.212;2022-09-24T12:17:04;19.70;99.90
2487;DHT22;1254;49.144;8.212;2022-09-24T12:19:37;19.40;99.90
2487;DHT22;1254;49.144;8.212;2022-09-24T12:22:07;19.20;99.90
2487;DHT22;1254;49.144;8.212;2022-09-24T12:24:40;19.40;99.90
2487;DHT22;1254;49.144;8.212;2022-09-24T12:27:12;19.60;99.90
2487;DHT22;1254;49.144;8.212;2022-09-24T12:29:49;19.50;99.90
2487;DHT22;1254;49.144;8.212;2022-09-24T12:32:45;19.30;99.90
2487;DHT22;1254;49.144;8.212;2022-09-24T12:35:31;19.30;99.90
2487;DHT22;1254;49.144;8.212;2022-09-24T12:38:32;19.50;99.90
2487;DHT22;1254;49.144;8.212;2022-09-24T12:41:21;19.40;99.90
2487;DHT22;1254;49.144;8.212;2022-09-24T12:43:54;19.90;99.90
2487;DHT22;1254;49.144;8.212;2022-09-24T12:46:28;19.80;99.90
2487;DHT22;1254;49.144;8.212;2022-09-24T12:48:58;19.60;99.90
2487;DHT22;1254;49.144;8.212;2022-09-24T12:51:35;19.60;99.90
2487;DHT22;1254;49.144;8.212;2022-09-24T12:54:06;19.60;99.90
2487;DHT22;1254;49.144;8.212;2022-09-24T12:56:37;19.30;99.90
2487;DHT22;1254;49.144;8.212;2022-09-24T12:59:23;19.40;99.90
2487;DHT22;1254;49.144;8.212;2022-09-24T13:01:53;19.90;99.90
2487;DHT22;1254;49.144;8.212;2022-09-24T13:04:27;20.70;99.90
2487;DHT22;1254;49.144;8.212;2022-09-24T13:06:55;20.50;99.90
2487;DHT22;1254;49.144;8.212;2022-09-24T13:09:31;20.60;99.90
2487;DHT22;1254;49.144;8.212;2022-09-24T13:12:02;21.00;99.90
2487;DHT22;1254;49.144;8.212;2022-09-24T13:14:32;21.90;99.90
2487;DHT22;1254;49.144;8.212;2022-09-24T13:17:06;22.90;99.90
2487;DHT22;1254;49.144;8.212;2022-09-24T13:19:36;22.30;99.90
2487;DHT22;1254;49.144;8.212;2022-09-24T13:22:18;21.20;99.90
2487;DHT22;1254;49.144;8.212;2022-09-24T13:24:49;21.30;99.90
2487;DHT22;1254;49.144;8.212;2022-09-24T13:27:23;20.70;99.90
2487;DHT22;1254;49.144;8.212;2022-09-24T13:30:15;21.00;99.90
2487;DHT22;1254;49.144;8.212;2022-09-24T13:32:52;21.10;99.90
2487;DHT22;1254;49.144;8.212;2022-09-24T13:35:23;20.50;99.90
2487;DHT22;1254;49.144;8.212;2022-09-24T13:38:00;19.90;99.90
2487;DHT22;1254;49.144;8.212;2022-09-24T13:40:34;19.90;99.90
2487;DHT22;1254;49.144;8.212;2022-09-24T13:43:10;20.10;99.90
2487;DHT22;1254;49.144;8.212;2022-09-24T13:45:41;20.30;99.90
2487;DHT22;1254;49.144;8.212;2022-09-24T13:48:18;20.50;99.90
2487;DHT22;1254;49.144;8.212;2022-09-24T13:50:51;20.40;99.90
2487;DHT22;1254;49.144;8.212;2022-09-24T13:53:29;20.20;99.90
2487;DHT22;1254;49.144;8.212;2022-09-24T13:55:59;20.00;99.90
2487;DHT22;1254;49.144;8.212;2022-09-24T13:58:31;20.00;99.90
2487;DHT22;1254;49.144;8.212;2022-09-24T14:01:01;19.70;99.90
2487;DHT22;1254;49.144;8.212;2022-09-24T14:03:33;19.60;99.90
2487;DHT22;1254;49.144;8.212;2022-09-24T14:06:09;19.80;99.90
2487;DHT22;1254;49.144;8.212;2022-09-24T14:08:40;19.70;99.90
2487;DHT22;1254;49.144;8.212;2022-09-24T14:11:14;20.80;99.90
2487;DHT22;1254;49.144;8.212;2022-09-24T14:13:43;22.60;99.90
2487;DHT22;1254;49.144;8.212;2022-09-24T14:16:14;22.90;99.90
2487;DHT22;1254;49.144;8.212;2022-09-24T14:18:45;22.60;99.90
2487;DHT22;1254;49.144;8.212;2022-09-24T14:21:17;22.20;99.90
2487;DHT22;1254;49.144;8.212;2022-09-24T14:23:51;22.10;99.90
2487;DHT22;1254;49.144;8.212;2022-09-24T14:26:25;21.40;99.90
2487;DHT22;1254;49.144;8.212;2022-09-24T14:28:55;20.70;99.90
2487;DHT22;1254;49.144;8.212;2022-09-24T14:31:24;20.20;99.90
2487;DHT22;1254;49.144;8.212;2022-09-24T14:33:54;20.10;99.90
2487;DHT22;1254;49.144;8.212;2022-09-24T14:36:22;20.50;99.90
2487;DHT22;1254;49.144;8.212;2022-09-24T14:38:58;21.20;99.90
2487;DHT22;1254;49.144;8.212;2022-09-24T14:41:29;21.40;99.90
2487;DHT22;1254;49.144;8.212;2022-09-24T14:44:00;21.30;99.90
2487;DHT22;1254;49.144;8.212;2022-09-24T14:46:32;20.80;99.90
2487;DHT22;1254;49.144;8.212;2022-09-24T14:49:13;20.40;99.90
2487;DHT22;1254;49.144;8.212;2022-09-24T14:51:50;20.40;99.90
2487;DHT22;1254;49.144;8.212;2022-09-24T14:54:24;20.30;99.90
2487;DHT22;1254;49.144;8.212;2022-09-24T14:56:54;20.30;99.90
2487;DHT22;1254;49.144;8.212;2022-09-24T14:59:30;20.30;99.90
2487;DHT22;1254;49.144;8.212;2022-09-24T15:02:13;20.20;99.90
2487;DHT22;1254;49.144;8.212;2022-09-24T15:04:45;20.10;99.90
2487;DHT22;1254;49.144;8.212;2022-09-24T15:07:16;20.20;99.90
2487;DHT22;1254;49.144;8.212;2022-09-24T15:09:48;20.30;99.90
2487;DHT22;1254;49.144;8.212;2022-09-24T15:12:20;20.50;99.90
2487;DHT22;1254;49.144;8.212;2022-09-24T15:14:55;20.70;99.90
2487;DHT22;1254;49.144;8.212;2022-09-24T15:17:28;21.30;99.90
2487;DHT22;1254;49.144;8.212;2022-09-24T15:19:58;21.40;99.90
2487;DHT22;1254;49.144;8.212;2022-09-24T15:22:27;21.50;99.90
2487;DHT22;1254;49.144;8.212;2022-09-24T15:24:59;21.70;99.90
2487;DHT22;1254;49.144;8.212;2022-09-24T15:27:29;21.70;99.90
2487;DHT22;1254;49.144;8.212;2022-09-24T15:29:59;21.80;99.90
2487;DHT22;1254;49.144;8.212;2022-09-24T15:32:29;21.10;99.90
2487;DHT22;1254;49.144;8.212;2022-09-24T15:34:59;20.90;99.90
2487;DHT22;1254;49.144;8.212;2022-09-24T15:37:28;20.50;99.90
2487;DHT22;1254;49.144;8.212;2022-09-24T15:39:58;20.50;99.90
2487;DHT22;1254;49.144;8.212;2022-09-24T15:42:26;20.40;99.90
2487;DHT22;1254;49.144;8.212;2022-09-24T15:44:56;20.30;99.90
2487;DHT22;1254;49.144;8.212;2022-09-24T15:47:24;20.10;99.90
2487;DHT22;1254;49.144;8.212;2022-09-24T15:49:52;20.00;99.90
2487;DHT22;1254;49.144;8.212;2022-09-24T15:52:22;19.80;99.90
2487;DHT22;1254;49.144;8.212;2022-09-24T15:54:52;19.70;99.90
2487;DHT22;1254;49.144;8.212;2022-09-24T15:57:20;19.70;99.90
2487;DHT22;1254;49.144;8.212;2022-09-24T15:59:49;19.70;99.90
2487;DHT22;1254;49.144;8.212;2022-09-24T16:02:21;19.80;99.90
2487;DHT22;1254;49.144;8.212;2022-09-24T16:04:50;19.80;99.90
2487;DHT22;1254;49.144;8.212;2022-09-24T16:07:18;19.80;99.90
2487;DHT22;1254;49.144;8.212;2022-09-24T16:09:47;19.80;99.90
2487;DHT22;1254;49.144;8.212;2022-09-24T16:12:16;19.80;99.90
2487;DHT22;1254;49.144;8.212;2022-09-24T16:14:45;19.80;99.90
2487;DHT22;1254;49.144;8.212;2022-09-24T16:17:13;19.60;99.90
2487;DHT22;1254;49.144;8.212;2022-09-24T16:19:40;19.60;99.90
2487;DHT22;1254;49.144;8.212;2022-09-24T16:22:09;19.50;99.90
2487;DHT22;1254;49.144;8.212;2022-09-24T16:24:36;19.50;99.90
2487;DHT22;1254;49.144;8.212;2022-09-24T16:27:06;19.40;99.90
2487;DHT22;1254;49.144;8.212;2022-09-24T16:29:34;19.40;99.90
2487;DHT22;1254;49.144;8.212;2022-09-24T16:32:02;19.30;99.90
2487;DHT22;1254;49.144;8.212;2022-09-24T16:34:30;19.20;99.90
2487;DHT22;1254;49.144;8.212;2022-09-24T16:37:00;19.00;99.90
2487;DHT22;1254;49.144;8.212;2022-09-24T16:39:27;19.00;99.90
2487;DHT22;1254;49.144;8.212;2022-09-24T16:41:59;19.00;99.90
2487;DHT22;1254;49.144;8.212;2022-09-24T16:44:28;19.00;99.90
2487;DHT22;1254;49.144;8.212;2022-09-24T16:46:56;18.80;99.90
2487;DHT22;1254;49.144;8.212;2022-09-24T16:49:24;18.70;99.90